Airfield :
LOGIN :

Register | Disclaimer

   EN    FR    IT 

 










Legend :    VFR   Marginal VFR   IFR   Intensive IFR   Very Intensive IFR
Visi :
Ceiling :
>= 8 km
>= 3000ft
5 to 8 km
1000 to 3000 ft
1500m to 5 km
500 to 1000 ft
800 to 1500m
200 to 500 ft
< 800m
< 200 ft
Symbols :   Thunderstorms  Fog  Heavy snow  Heavy precipitations  Wind > 20 kt
SIGMETs :     Misc.  Thunderstorms  Icing  Turbulence  Mountain Waves  Volcanic Ashes







- Airport Elevation : 768 ft
- IATA code : MXP


LIMC - Milano Malpensa

CURRENT METAR :
  • 161720Z 26006KT 210V300 9999 FEW060 28/14 Q1014 NOSIG

EXPIRED METARs :
  • 161650Z 24005KT 200V290 9999 SCT060 29/14 Q1014 NOSIG
  • 161620Z 25006KT 210V300 9999 SCT060 29/14 Q1014 NOSIG
  • 161550Z 25005KT 210V320 9999 SCT060 30/13 Q1015 NOSIG
  • 161520Z 27006KT 200V330 9999 SCT060 30/13 Q1015 NOSIG
  • 161450Z 20004KT 120V260 9999 SCT060 30/13 Q1015 NOSIG
  • 161420Z VRB05KT 9999 SCT060 29/14 Q1015 NOSIG

TAF TAF LIMC
Valid from the 16 at 18:00 until the 18 at 00:00 UTC


161700Z 1618/1724 VRB05KT 9999 SCT060
No reported NOTAMs for that airfield.



MET'MAP, your aeronautical weather chart ! - Copyright ORBIFLY December 2007 - Disclaimer

ORBIFLY MET'MAP TEAM :

Programming & Development : Alexandra Zaïnal
Concept & Development : Baudouin d'Aumeries
Co-Development & Prog : Marc-Olivier Méhu
Technical & hardware support : Manuel Goepfert

Contact : metmap@orbifly.com




SOURCES & CREDITS :

   NOAA